Time;durP1;ratioP1;P1;durP2;ratioP2;P2;SDS_P1;SDS_P2;PMS_P1;PMS_P2;Temp;Humidity;BMP_temperature;BMP_pressure;BME280_temperature;BME280_humidity;BME280_pressure;Samples;Min_cycle;Max_cycle;Signal;HPM_P1;HPM_P2
2022/03/09 00:01:55;;;;;;;13.18;5.70;;;;;;;;;;5095226;28;20020;-41
2022/03/09 00:04:21;;;;;;;13.40;6.07;;;;;;;;;;5095389;28;20028;-41
2022/03/09 00:06:46;;;;;;;21.40;7.80;;;;;;;;;;5095190;28;20020;-40
2022/03/09 00:09:13;;;;;;;16.67;7.72;;;;;;;;;;5095178;28;20024;-41
2022/03/09 00:11:39;;;;;;;10.15;6.45;;;;;;;;;;5095343;28;20085;-41
2022/03/09 00:14:04;;;;;;;14.35;6.70;;;;;;;;;;5095266;28;20016;-40
2022/03/09 00:16:30;;;;;;;22.60;9.73;;;;;;;;;;5095273;28;20028;-41
2022/03/09 00:18:55;;;;;;;21.17;9.93;;;;;;;;;;5094959;28;20098;-41
2022/03/09 00:21:21;;;;;;;18.70;9.93;;;;;;;;;;5094986;28;20024;-41
2022/03/09 00:23:46;;;;;;;18.08;7.40;;;;;;;;;;5094513;28;20048;-41
2022/03/09 00:26:13;;;;;;;22.52;8.00;;;;;;;;;;5094826;28;20020;-40
2022/03/09 00:28:38;;;;;;;14.40;7.28;;;;;;;;;;5094808;28;20055;-41
2022/03/09 00:31:04;;;;;;;15.07;8.38;;;;;;;;;;5095009;28;20472;-40
2022/03/09 00:33:30;;;;;;;21.10;10.05;;;;;;;;;;5094947;28;20368;-41
2022/03/09 00:35:55;;;;;;;18.33;8.45;;;;;;;;;;5094852;28;20364;-41
2022/03/09 00:38:21;;;;;;;20.80;9.88;;;;;;;;;;5094517;28;20016;-41
2022/03/09 00:40:48;;;;;;;11.52;6.53;;;;;;;;;;5094771;28;20028;-41
2022/03/09 00:43:15;;;;;;;19.90;7.45;;;;;;;;;;5094722;28;20024;-41
2022/03/09 00:45:41;;;;;;;18.88;9.10;;;;;;;;;;5094952;28;20081;-41
2022/03/09 00:48:06;;;;;;;24.85;9.27;;;;;;;;;;5094638;28;20027;-41
2022/03/09 00:50:32;;;;;;;17.65;9.18;;;;;;;;;;5094283;28;20425;-41
2022/03/09 00:52:57;;;;;;;17.65;7.10;;;;;;;;;;5094539;28;20474;-41
2022/03/09 00:55:23;;;;;;;21.70;10.52;;;;;;;;;;5094495;28;20107;-41
2022/03/09 00:57:48;;;;;;;21.13;9.25;;;;;;;;;;5093381;28;20024;-41
2022/03/09 01:00:14;;;;;;;26.00;10.07;;;;;;;;;;5094140;28;20028;-41
2022/03/09 01:02:44;;;;;;;19.85;9.40;;;;;;;;;;5094086;28;20468;-41
2022/03/09 01:05:11;;;;;;;9.75;5.53;;;;;;;;;;5094724;28;20267;-41
2022/03/09 01:07:37;;;;;;;21.75;8.63;;;;;;;;;;5094246;28;20028;-41
2022/03/09 01:10:03;;;;;;;21.17;9.20;;;;;;;;;;5094141;28;20476;-41
2022/03/09 01:12:29;;;;;;;23.67;8.90;;;;;;;;;;5093856;28;20365;-41
2022/03/09 01:14:55;;;;;;;19.15;9.27;;;;;;;;;;5093905;28;20054;-42
2022/03/09 01:17:21;;;;;;;18.67;9.88;;;;;;;;;;5093744;28;20108;-41
2022/03/09 01:19:46;;;;;;;13.48;7.47;;;;;;;;;;5092520;28;20054;-41
2022/03/09 01:22:12;;;;;;;14.25;6.97;;;;;;;;;;5093711;28;20019;-42
2022/03/09 01:24:37;;;;;;;1.73;1.63;;;;;;;;;;5093338;28;20051;-41
2022/03/09 01:27:03;;;;;;;17.13;9.10;;;;;;;;;;5093606;28;20020;-41
2022/03/09 01:29:28;;;;;;;7.47;6.90;;;;;;;;;;5093548;28;20028;-41
2022/03/09 01:31:54;;;;;;;11.35;5.93;;;;;;;;;;5093436;28;20020;-42
2022/03/09 01:34:20;;;;;;;3.30;3.00;;;;;;;;;;5093503;28;20027;-41
2022/03/09 01:36:45;;;;;;;17.85;8.07;;;;;;;;;;5093518;28;20135;-41
2022/03/09 01:39:11;;;;;;;16.35;8.07;;;;;;;;;;5093607;28;20440;-41
2022/03/09 01:41:37;;;;;;;11.93;5.95;;;;;;;;;;5093362;28;20502;-41
2022/03/09 01:44:11;;;;;;;21.00;10.20;;;;;;;;;;5093060;28;20132;-41
2022/03/09 01:46:38;;;;;;;27.20;9.73;;;;;;;;;;5093263;28;20031;-41
2022/03/09 01:49:05;;;;;;;22.27;10.55;;;;;;;;;;5092017;28;20035;-41
2022/03/09 01:51:32;;;;;;;2.70;2.10;;;;;;;;;;5093406;28;20348;-41
2022/03/09 01:53:58;;;;;;;17.75;7.72;;;;;;;;;;5093018;28;20020;-41
2022/03/09 01:56:24;;;;;;;26.95;12.52;;;;;;;;;;5093023;28;20704;-41
2022/03/09 01:58:50;;;;;;;41.83;14.68;;;;;;;;;;5093011;28;20027;-42
2022/03/09 02:01:15;;;;;;;11.73;7.97;;;;;;;;;;5093081;28;20028;-41
2022/03/09 02:03:41;;;;;;;10.32;4.18;;;;;;;;;;5093121;28;20024;-41
2022/03/09 02:06:06;;;;;;;10.40;6.00;;;;;;;;;;5092882;28;20023;-41
2022/03/09 02:11:16;;;;;;;27.70;12.32;;;;;;;;;;5093153;28;20035;-41
2022/03/09 02:13:42;;;;;;;35.20;14.93;;;;;;;;;;5092726;28;20016;-42
2022/03/09 02:16:08;;;;;;;30.20;12.25;;;;;;;;;;5092773;28;20111;-42
2022/03/09 02:18:33;;;;;;;35.78;15.38;;;;;;;;;;5092671;28;20162;-41
2022/03/09 02:21:02;;;;;;;28.13;12.57;;;;;;;;;;5092949;28;20039;-42
2022/03/09 02:23:28;;;;;;;39.97;15.77;;;;;;;;;;5092464;28;20040;-41
2022/03/09 02:25:54;;;;;;;34.47;14.93;;;;;;;;;;5092659;28;20460;-41
2022/03/09 02:28:19;;;;;;;12.18;5.72;;;;;;;;;;5093117;28;20035;-41
2022/03/09 02:30:45;;;;;;;33.75;15.18;;;;;;;;;;5092830;28;20032;-41
2022/03/09 02:33:10;;;;;;;37.85;16.98;;;;;;;;;;5092489;28;20028;-42
2022/03/09 02:35:36;;;;;;;26.55;14.15;;;;;;;;;;5092577;28;20058;-42
2022/03/09 02:38:01;;;;;;;46.78;19.50;;;;;;;;;;5092591;28;20444;-41
2022/03/09 02:40:27;;;;;;;35.22;12.30;;;;;;;;;;5091077;28;20387;-42
2022/03/09 02:42:52;;;;;;;42.25;15.93;;;;;;;;;;5092366;28;20043;-42
2022/03/09 02:45:18;;;;;;;28.98;14.57;;;;;;;;;;5092531;28;20186;-42
2022/03/09 02:47:45;;;;;;;39.50;15.15;;;;;;;;;;5092624;28;20388;-42
2022/03/09 02:50:12;;;;;;;28.92;12.45;;;;;;;;;;5092281;28;20027;-41
2022/03/09 02:52:39;;;;;;;49.28;18.65;;;;;;;;;;5092372;28;20024;-42
2022/03/09 02:55:07;;;;;;;43.50;17.95;;;;;;;;;;5092377;28;20028;-43
2022/03/09 02:57:33;;;;;;;40.33;16.90;;;;;;;;;;5092666;28;20027;-42
2022/03/09 02:59:59;;;;;;;43.83;19.38;;;;;;;;;;5092540;28;20016;-42
2022/03/09 03:02:24;;;;;;;51.13;18.45;;;;;;;;;;5092423;28;20392;-41
2022/03/09 03:04:50;;;;;;;43.92;18.20;;;;;;;;;;5092276;28;20102;-42
2022/03/09 03:07:15;;;;;;;22.67;11.48;;;;;;;;;;5092447;28;20051;-41
2022/03/09 03:09:41;;;;;;;41.08;15.75;;;;;;;;;;5092518;28;20089;-42
2022/03/09 03:12:07;;;;;;;39.33;17.42;;;;;;;;;;5092230;28;20081;-41
2022/03/09 03:14:33;;;;;;;55.53;21.63;;;;;;;;;;5092129;28;20057;-42
2022/03/09 03:16:58;;;;;;;47.72;19.73;;;;;;;;;;5092149;28;20035;-41
2022/03/09 03:19:24;;;;;;;41.30;18.15;;;;;;;;;;5092126;28;20024;-41
2022/03/09 03:21:49;;;;;;;45.95;18.85;;;;;;;;;;5094352;28;20047;-41
2022/03/09 03:24:15;;;;;;;24.48;12.93;;;;;;;;;;5095766;28;20408;-41
2022/03/09 03:26:41;;;;;;;46.58;21.13;;;;;;;;;;5096254;28;20023;-41
2022/03/09 03:29:06;;;;;;;41.75;16.75;;;;;;;;;;5096225;28;20024;-41
2022/03/09 03:31:35;;;;;;;40.10;17.40;;;;;;;;;;5095948;28;20103;-42
2022/03/09 03:34:01;;;;;;;39.60;16.65;;;;;;;;;;5095770;28;20549;-42
2022/03/09 03:36:27;;;;;;;34.03;16.40;;;;;;;;;;5095707;28;20024;-41
2022/03/09 03:38:52;;;;;;;42.28;16.10;;;;;;;;;;5095754;28;20020;-42
2022/03/09 03:41:18;;;;;;;38.45;17.48;;;;;;;;;;5095708;28;20024;-41
2022/03/09 03:43:44;;;;;;;39.90;18.10;;;;;;;;;;5095851;28;20031;-42
2022/03/09 03:46:10;;;;;;;51.08;21.38;;;;;;;;;;5095555;28;20039;-42
2022/03/09 03:48:35;;;;;;;42.08;17.60;;;;;;;;;;5095605;28;20096;-42
2022/03/09 03:51:01;;;;;;;38.42;17.30;;;;;;;;;;5095495;28;20376;-42
2022/03/09 03:53:27;;;;;;;42.05;18.20;;;;;;;;;;5095659;28;20107;-42
2022/03/09 03:55:53;;;;;;;52.38;19.65;;;;;;;;;;5094175;28;20118;-42
2022/03/09 03:58:18;;;;;;;47.10;18.08;;;;;;;;;;5095352;28;20489;-42
2022/03/09 04:00:44;;;;;;;37.83;17.60;;;;;;;;;;5095292;28;20107;-42
2022/03/09 04:03:10;;;;;;;25.40;13.10;;;;;;;;;;5095263;28;20050;-42
2022/03/09 04:05:36;;;;;;;23.55;10.57;;;;;;;;;;5095153;28;20065;-42
2022/03/09 04:08:01;;;;;;;26.45;12.02;;;;;;;;;;5095138;28;20020;-43
2022/03/09 04:10:27;;;;;;;32.53;16.70;;;;;;;;;;5095536;28;20081;-42
2022/03/09 04:12:53;;;;;;;23.48;12.27;;;;;;;;;;5095088;28;20475;-42
2022/03/09 04:15:18;;;;;;;22.55;11.18;;;;;;;;;;5095382;28;20023;-41
2022/03/09 04:17:46;;;;;;;28.25;13.50;;;;;;;;;;5095048;28;20433;-42
2022/03/09 04:20:13;;;;;;;47.50;19.38;;;;;;;;;;5094950;28;20024;-42
2022/03/09 04:22:40;;;;;;;46.05;19.55;;;;;;;;;;5094866;28;20020;-42
2022/03/09 04:25:07;;;;;;;44.10;19.27;;;;;;;;;;5094748;28;20048;-43
2022/03/09 04:27:32;;;;;;;41.80;17.52;;;;;;;;;;5094868;28;20037;-43
2022/03/09 04:29:58;;;;;;;41.67;17.55;;;;;;;;;;5094794;28;20024;-42
2022/03/09 04:32:25;;;;;;;30.85;15.05;;;;;;;;;;5093845;28;20032;-42
2022/03/09 04:34:54;;;;;;;37.30;17.23;;;;;;;;;;5094932;28;20479;-42
2022/03/09 04:37:20;;;;;;;41.65;15.93;;;;;;;;;;5094672;28;20027;-42
2022/03/09 04:39:46;;;;;;;35.15;15.73;;;;;;;;;;5094889;28;20024;-42
2022/03/09 04:42:12;;;;;;;38.17;16.05;;;;;;;;;;5094819;28;20414;-42
2022/03/09 04:44:37;;;;;;;32.15;15.70;;;;;;;;;;5094456;28;20144;-43
2022/03/09 04:47:03;;;;;;;38.30;17.45;;;;;;;;;;5094429;28;20099;-42
2022/03/09 04:49:29;;;;;;;41.10;17.50;;;;;;;;;;5094722;28;20024;-42
2022/03/09 04:51:54;;;;;;;42.28;18.60;;;;;;;;;;5094266;28;20016;-42
2022/03/09 04:54:20;;;;;;;40.95;16.88;;;;;;;;;;5094483;28;20119;-42
2022/03/09 04:56:46;;;;;;;32.30;15.85;;;;;;;;;;5094270;28;20020;-42
2022/03/09 04:59:11;;;;;;;53.08;14.68;;;;;;;;;;5094177;28;20032;-42
2022/03/09 05:01:37;;;;;;;45.47;16.08;;;;;;;;;;5094409;28;20034;-41
2022/03/09 05:04:02;;;;;;;38.92;17.98;;;;;;;;;;5093936;28;20028;-42
2022/03/09 05:06:28;;;;;;;45.67;18.65;;;;;;;;;;5092743;28;20111;-42
2022/03/09 05:08:53;;;;;;;38.60;16.58;;;;;;;;;;5093927;28;20388;-42
2022/03/09 05:11:19;;;;;;;36.28;16.77;;;;;;;;;;5093902;28;20028;-42
2022/03/09 05:13:45;;;;;;;36.53;16.45;;;;;;;;;;5094262;28;20102;-41
2022/03/09 05:16:11;;;;;;;38.38;14.75;;;;;;;;;;5093095;28;20368;-42
2022/03/09 05:18:40;;;;;;;32.20;15.40;;;;;;;;;;5093969;28;20020;-43
2022/03/09 05:21:07;;;;;;;44.17;16.67;;;;;;;;;;5093866;28;20027;-41
2022/03/09 05:23:32;;;;;;;44.67;18.73;;;;;;;;;;5093798;28;20048;-42
2022/03/09 05:25:58;;;;;;;37.78;17.02;;;;;;;;;;5093810;28;20028;-42
2022/03/09 05:28:24;;;;;;;36.30;16.67;;;;;;;;;;5094118;28;20107;-42
2022/03/09 05:30:49;;;;;;;36.75;16.63;;;;;;;;;;5094066;28;20021;-42
2022/03/09 05:33:15;;;;;;;39.03;17.20;;;;;;;;;;5094030;28;20028;-42
2022/03/09 05:35:40;;;;;;;37.67;17.55;;;;;;;;;;5093766;28;20099;-42
2022/03/09 05:38:06;;;;;;;36.53;16.67;;;;;;;;;;5093462;28;20020;-41
2022/03/09 05:40:32;;;;;;;31.60;16.35;;;;;;;;;;5093846;28;20028;-44
2022/03/09 05:42:57;;;;;;;45.33;17.35;;;;;;;;;;5093275;28;20035;-42
2022/03/09 05:45:23;;;;;;;35.47;16.75;;;;;;;;;;5092443;28;20353;-42
2022/03/09 05:47:48;;;;;;;35.75;17.05;;;;;;;;;;5093399;28;20019;-42
2022/03/09 05:50:14;;;;;;;38.08;15.88;;;;;;;;;;5093418;28;20060;-41
2022/03/09 05:52:40;;;;;;;36.28;16.58;;;;;;;;;;5092289;28;20483;-42
2022/03/09 05:55:06;;;;;;;29.85;15.27;;;;;;;;;;5093364;28;20043;-42
2022/03/09 05:57:31;;;;;;;35.58;16.80;;;;;;;;;;5092046;28;20024;-41
2022/03/09 05:59:57;;;;;;;40.47;16.20;;;;;;;;;;5093119;28;20039;-42
2022/03/09 06:02:23;;;;;;;40.33;16.48;;;;;;;;;;5093142;28;20027;-42
2022/03/09 06:04:48;;;;;;;36.97;15.25;;;;;;;;;;5091760;28;20035;-41
2022/03/09 06:07:14;;;;;;;45.15;16.85;;;;;;;;;;5093103;28;20065;-41
2022/03/09 06:09:40;;;;;;;34.28;17.00;;;;;;;;;;5093022;28;20458;-42
2022/03/09 06:12:06;;;;;;;36.35;17.20;;;;;;;;;;5093182;28;20079;-41
2022/03/09 06:14:31;;;;;;;39.10;17.05;;;;;;;;;;5092930;28;20049;-41
2022/03/09 06:16:57;;;;;;;41.03;19.55;;;;;;;;;;5093147;28;20085;-41
2022/03/09 06:19:22;;;;;;;36.30;16.75;;;;;;;;;;5092745;28;20038;-42
2022/03/09 06:21:48;;;;;;;36.67;15.27;;;;;;;;;;5092979;28;20032;-41
2022/03/09 06:24:18;;;;;;;45.47;18.27;;;;;;;;;;5092358;28;20044;-42
2022/03/09 06:26:44;;;;;;;37.03;18.63;;;;;;;;;;5092692;28;20028;-41
2022/03/09 06:29:10;;;;;;;43.97;18.33;;;;;;;;;;5091423;28;20020;-41
2022/03/09 06:31:36;;;;;;;37.13;16.60;;;;;;;;;;5092823;28;20028;-41
2022/03/09 06:34:02;;;;;;;46.05;19.58;;;;;;;;;;5092595;28;20495;-41
2022/03/09 06:36:28;;;;;;;48.50;20.42;;;;;;;;;;5092595;28;20066;-41
2022/03/09 06:38:53;;;;;;;47.63;22.08;;;;;;;;;;5092763;28;20024;-41
2022/03/09 06:41:19;;;;;;;47.15;20.48;;;;;;;;;;5092512;28;20030;-42
2022/03/09 06:43:44;;;;;;;50.47;18.58;;;;;;;;;;5092375;28;20475;-41
2022/03/09 06:46:10;;;;;;;41.75;19.63;;;;;;;;;;5092460;28;20030;-42
2022/03/09 06:48:36;;;;;;;39.03;18.83;;;;;;;;;;5092468;28;20103;-41
2022/03/09 06:51:02;;;;;;;40.25;19.13;;;;;;;;;;5092361;28;20387;-42
2022/03/09 06:53:28;;;;;;;42.50;19.48;;;;;;;;;;5092317;28;20034;-43
2022/03/09 06:55:53;;;;;;;42.33;19.67;;;;;;;;;;5094532;28;20024;-42
2022/03/09 06:58:19;;;;;;;48.03;21.55;;;;;;;;;;5095151;28;20046;-42
2022/03/09 07:00:45;;;;;;;40.28;20.20;;;;;;;;;;5096500;28;20016;-42
2022/03/09 07:03:11;;;;;;;52.15;23.00;;;;;;;;;;5096468;28;20031;-42
2022/03/09 07:05:36;;;;;;;55.22;23.50;;;;;;;;;;5096333;28;20027;-44
2022/03/09 07:08:02;;;;;;;46.35;21.92;;;;;;;;;;5096378;28;20031;-42
2022/03/09 07:10:28;;;;;;;48.55;22.33;;;;;;;;;;5096556;28;20468;-41
2022/03/09 07:12:54;;;;;;;49.55;22.30;;;;;;;;;;5096530;28;20221;-42
2022/03/09 07:15:20;;;;;;;55.03;23.02;;;;;;;;;;5096101;28;20384;-44
2022/03/09 07:17:47;;;;;;;49.17;23.95;;;;;;;;;;5094858;28;20031;-42
2022/03/09 07:20:13;;;;;;;54.83;24.23;;;;;;;;;;5096147;28;20032;-42
2022/03/09 07:22:40;;;;;;;45.75;22.10;;;;;;;;;;5096095;28;20349;-42
2022/03/09 07:25:07;;;;;;;42.80;20.83;;;;;;;;;;5095862;28;20036;-42
2022/03/09 07:27:32;;;;;;;45.85;20.33;;;;;;;;;;5095961;28;20020;-42
2022/03/09 07:29:58;;;;;;;40.20;19.17;;;;;;;;;;5095953;28;20023;-44
2022/03/09 07:32:23;;;;;;;45.70;19.40;;;;;;;;;;5094705;28;20050;-42
2022/03/09 07:34:49;;;;;;;40.80;19.15;;;;;;;;;;5095923;28;20028;-44
2022/03/09 07:37:14;;;;;;;43.17;17.88;;;;;;;;;;5095768;28;20020;-45
2022/03/09 07:39:40;;;;;;;34.50;17.83;;;;;;;;;;5095660;28;20032;-42
2022/03/09 07:42:06;;;;;;;32.50;16.80;;;;;;;;;;5095471;28;20466;-43
2022/03/09 07:44:31;;;;;;;27.95;14.60;;;;;;;;;;5095697;28;20051;-43
2022/03/09 07:46:57;;;;;;;19.45;10.52;;;;;;;;;;5095592;28;20391;-42
2022/03/09 07:49:22;;;;;;;33.53;16.98;;;;;;;;;;5095664;28;20028;-43
2022/03/09 07:51:49;;;;;;;41.00;17.80;;;;;;;;;;5092675;28;20057;-45
2022/03/09 07:54:15;;;;;;;33.67;17.40;;;;;;;;;;5093750;28;20020;-43
2022/03/09 07:56:40;;;;;;;38.60;18.10;;;;;;;;;;5093789;28;20036;-44
2022/03/09 07:59:08;;;;;;;38.35;18.50;;;;;;;;;;5093342;28;20688;-45
2022/03/09 08:01:34;;;;;;;42.55;18.63;;;;;;;;;;5093551;28;20047;-43
2022/03/09 08:04:00;;;;;;;38.42;17.77;;;;;;;;;;5092094;28;20036;-45
2022/03/09 08:06:26;;;;;;;36.50;19.30;;;;;;;;;;5094671;28;20024;-44
2022/03/09 08:08:52;;;;;;;39.28;19.33;;;;;;;;;;5093880;28;20024;-44
2022/03/09 08:11:17;;;;;;;38.42;19.52;;;;;;;;;;5095332;28;20035;-42
2022/03/09 08:13:43;;;;;;;37.38;20.42;;;;;;;;;;5094983;28;20085;-44
2022/03/09 08:16:08;;;;;;;34.72;19.05;;;;;;;;;;5094247;28;20031;-43
2022/03/09 08:18:34;;;;;;;39.97;21.50;;;;;;;;;;5094374;28;20050;-48
2022/03/09 08:21:00;;;;;;;52.88;22.80;;;;;;;;;;5093396;28;20048;-44
2022/03/09 08:23:27;;;;;;;47.22;20.67;;;;;;;;;;5092442;28;20055;-45
2022/03/09 08:25:53;;;;;;;44.92;22.70;;;;;;;;;;5093012;28;20089;-44
2022/03/09 08:28:18;;;;;;;42.75;22.00;;;;;;;;;;5093038;28;20024;-47
2022/03/09 08:30:45;;;;;;;44.03;19.20;;;;;;;;;;5093200;28;20028;-44
2022/03/09 08:33:11;;;;;;;45.58;19.85;;;;;;;;;;5093501;28;20055;-43
2022/03/09 08:35:38;;;;;;;42.22;19.08;;;;;;;;;;5094587;28;20038;-45
2022/03/09 08:38:04;;;;;;;32.88;17.45;;;;;;;;;;5092740;28;20046;-44
2022/03/09 08:40:30;;;;;;;35.80;16.48;;;;;;;;;;5092875;28;20028;-44
2022/03/09 08:42:56;;;;;;;36.20;13.93;;;;;;;;;;5094270;28;20024;-45
2022/03/09 08:45:22;;;;;;;29.88;14.82;;;;;;;;;;5094524;28;20062;-44
2022/03/09 08:47:47;;;;;;;26.77;13.48;;;;;;;;;;5094744;28;20020;-43
2022/03/09 08:50:13;;;;;;;24.23;13.38;;;;;;;;;;5094313;28;20047;-45
2022/03/09 08:52:39;;;;;;;28.23;15.07;;;;;;;;;;5094526;28;20070;-44
2022/03/09 08:55:05;;;;;;;29.67;14.40;;;;;;;;;;5094212;28;20046;-44
2022/03/09 08:57:31;;;;;;;26.08;14.32;;;;;;;;;;5094302;28;20028;-43
2022/03/09 09:00:03;;;;;;;24.58;13.20;;;;;;;;;;5093794;28;20027;-45
2022/03/09 09:02:30;;;;;;;28.25;14.75;;;;;;;;;;5091267;28;20024;-44
2022/03/09 09:04:56;;;;;;;29.00;14.02;;;;;;;;;;5092912;28;20024;-45
2022/03/09 09:07:22;;;;;;;24.25;13.43;;;;;;;;;;5094249;28;20020;-47
2022/03/09 09:09:48;;;;;;;29.10;15.10;;;;;;;;;;5094271;28;20458;-48
2022/03/09 09:12:13;;;;;;;29.30;13.85;;;;;;;;;;5094405;28;20115;-49
2022/03/09 09:14:39;;;;;;;24.08;14.43;;;;;;;;;;5094500;28;20031;-47
2022/03/09 09:17:05;;;;;;;24.80;13.23;;;;;;;;;;5094508;28;20032;-46
2022/03/09 09:19:31;;;;;;;24.75;13.55;;;;;;;;;;5094024;28;20024;-46
2022/03/09 09:21:56;;;;;;;28.40;14.25;;;;;;;;;;5092486;28;20028;-46
2022/03/09 09:24:22;;;;;;;31.02;14.60;;;;;;;;;;5093809;28;20044;-47
2022/03/09 09:26:48;;;;;;;27.95;14.25;;;;;;;;;;5094048;28;20475;-60
2022/03/09 09:29:14;;;;;;;27.27;14.50;;;;;;;;;;5094273;28;20040;-56
2022/03/09 09:31:41;;;;;;;22.38;12.00;;;;;;;;;;5093873;28;20050;-48
2022/03/09 09:34:07;;;;;;;16.55;9.25;;;;;;;;;;5093713;28;20020;-46
2022/03/09 09:36:33;;;;;;;15.43;9.63;;;;;;;;;;5093816;28;20036;-55
2022/03/09 09:38:59;;;;;;;18.27;10.73;;;;;;;;;;5093962;28;20024;-57
2022/03/09 09:41:26;;;;;;;14.68;8.35;;;;;;;;;;5093823;28;20034;-46
2022/03/09 09:43:52;;;;;;;19.05;9.40;;;;;;;;;;5093565;28;20032;-50
2022/03/09 09:46:18;;;;;;;17.30;8.57;;;;;;;;;;5093589;28;20365;-47
2022/03/09 09:48:44;;;;;;;19.85;9.07;;;;;;;;;;5093966;28;20016;-59
2022/03/09 09:51:10;;;;;;;23.30;9.38;;;;;;;;;;5093673;28;20618;-57
2022/03/09 09:53:36;;;;;;;15.68;9.23;;;;;;;;;;5093709;28;20426;-58
2022/03/09 09:56:03;;;;;;;16.83;10.15;;;;;;;;;;5090025;28;20020;-48
2022/03/09 09:58:30;;;;;;;14.63;10.00;;;;;;;;;;5079773;28;20028;-46
2022/03/09 10:00:56;;;;;;;22.88;10.70;;;;;;;;;;5072334;28;20035;-57
2022/03/09 10:03:21;;;;;;;19.52;11.05;;;;;;;;;;5085435;28;20032;-58
2022/03/09 10:05:47;;;;;;;19.52;11.50;;;;;;;;;;5092065;28;20020;-59
2022/03/09 10:08:16;;;;;;;17.95;11.32;;;;;;;;;;5092646;28;20024;-46
2022/03/09 10:11:00;;;;;;;20.02;12.73;;;;;;;;;;5092534;28;20081;-47
2022/03/09 10:13:38;;;;;;;18.75;10.85;;;;;;;;;;5093015;28;20111;-45
2022/03/09 10:16:20;;;;;;;22.98;11.43;;;;;;;;;;5093526;28;20372;-59
2022/03/09 10:18:54;;;;;;;21.10;11.35;;;;;;;;;;5093144;28;20042;-58
2022/03/09 10:21:29;;;;;;;19.48;11.20;;;;;;;;;;5093370;28;20042;-46
2022/03/09 10:24:01;;;;;;;18.17;10.90;;;;;;;;;;5092301;28;20044;-49
2022/03/09 10:26:46;;;;;;;18.00;10.80;;;;;;;;;;5092952;28;20031;-53
2022/03/09 10:29:14;;;;;;;21.20;11.00;;;;;;;;;;5092470;28;20026;-51
2022/03/09 10:31:45;;;;;;;19.52;10.98;;;;;;;;;;5092187;28;20078;-48
2022/03/09 10:34:20;;;;;;;18.80;11.13;;;;;;;;;;5090248;28;20016;-52
2022/03/09 10:37:06;;;;;;;21.52;9.63;;;;;;;;;;5091503;28;20452;-49
2022/03/09 10:39:37;;;;;;;21.10;10.90;;;;;;;;;;5092110;28;20067;-47
2022/03/09 10:42:04;;;;;;;22.23;10.55;;;;;;;;;;5092352;28;20032;-50
2022/03/09 10:44:48;;;;;;;15.43;9.73;;;;;;;;;;5092738;28;20137;-49
2022/03/09 10:47:38;;;;;;;23.20;12.05;;;;;;;;;;5092646;28;20512;-47
2022/03/09 10:50:11;;;;;;;19.15;11.15;;;;;;;;;;5092778;28;20044;-47
2022/03/09 10:52:45;;;;;;;19.20;10.63;;;;;;;;;;5092506;28;20039;-47
2022/03/09 10:55:32;;;;;;;15.75;10.23;;;;;;;;;;5092233;28;20032;-50
2022/03/09 10:58:15;;;;;;;15.95;10.55;;;;;;;;;;5090231;28;20020;-54
2022/03/09 11:00:54;;;;;;;26.65;11.45;;;;;;;;;;5092314;28;20100;-53
2022/03/09 11:03:21;;;;;;;19.65;11.25;;;;;;;;;;5091834;28;20039;-50
2022/03/09 11:05:54;;;;;;;73.32;18.08;;;;;;;;;;5092027;28;20016;-56
2022/03/09 11:08:24;;;;;;;20.35;11.10;;;;;;;;;;5090179;28;20578;-54
2022/03/09 11:10:50;;;;;;;19.40;11.13;;;;;;;;;;5091613;28;20379;-55
2022/03/09 11:13:17;;;;;;;19.85;11.75;;;;;;;;;;5091817;28;20024;-44
2022/03/09 11:15:44;;;;;;;17.52;11.30;;;;;;;;;;5092532;28;20031;-47
2022/03/09 11:18:30;;;;;;;20.33;11.63;;;;;;;;;;5092158;28;20031;-45
2022/03/09 11:20:58;;;;;;;20.65;12.02;;;;;;;;;;5092434;28;20038;-58
2022/03/09 11:23:25;;;;;;;21.83;12.10;;;;;;;;;;5091729;28;20043;-58
2022/03/09 11:26:03;;;;;;;18.90;12.10;;;;;;;;;;5091592;28;20120;-45
2022/03/09 11:28:31;;;;;;;24.70;13.68;;;;;;;;;;5092148;28;20099;-57
2022/03/09 11:31:05;;;;;;;19.65;13.23;;;;;;;;;;5092391;28;20032;-58
2022/03/09 11:33:56;;;;;;;23.92;13.07;;;;;;;;;;5092228;28;20055;-53
2022/03/09 11:36:22;;;;;;;23.58;13.18;;;;;;;;;;5088686;28;20436;-47
2022/03/09 11:39:10;;;;;;;23.52;13.45;;;;;;;;;;5091195;28;20027;-46
2022/03/09 11:41:37;;;;;;;23.33;12.02;;;;;;;;;;5061659;28;20040;-44
2022/03/09 11:44:21;;;;;;;28.17;11.60;;;;;;;;;;5075123;28;20388;-46
2022/03/09 11:46:59;;;;;;;17.50;11.35;;;;;;;;;;5075558;28;20445;-45
2022/03/09 11:49:53;;;;;;;21.38;12.93;;;;;;;;;;5075555;28;20037;-48
2022/03/09 11:52:24;;;;;;;18.60;12.77;;;;;;;;;;5051232;28;20033;-52
2022/03/09 11:54:59;;;;;;;22.70;13.25;;;;;;;;;;5074502;28;20035;-58
2022/03/09 11:57:45;;;;;;;24.45;13.52;;;;;;;;;;5074852;28;20357;-49
2022/03/09 12:00:13;;;;;;;20.10;13.20;;;;;;;;;;5074583;28;20397;-56
2022/03/09 12:02:40;;;;;;;21.38;13.10;;;;;;;;;;5074792;28;20029;-57
2022/03/09 12:05:08;;;;;;;22.17;13.50;;;;;;;;;;5074527;28;20468;-49
2022/03/09 12:07:34;;;;;;;21.70;13.50;;;;;;;;;;5075064;28;20108;-55
2022/03/09 12:10:09;;;;;;;19.08;13.65;;;;;;;;;;5074845;28;20028;-52
2022/03/09 12:12:37;;;;;;;16.45;10.82;;;;;;;;;;5074810;28;20025;-50
2022/03/09 12:15:10;;;;;;;17.42;10.18;;;;;;;;;;5074722;28;20033;-52
2022/03/09 12:17:43;;;;;;;21.83;10.80;;;;;;;;;;5074596;28;20583;-57
2022/03/09 12:20:25;;;;;;;21.48;11.52;;;;;;;;;;5074514;28;20507;-46
2022/03/09 12:22:56;;;;;;;16.73;12.00;;;;;;;;;;5074484;28;20086;-56
2022/03/09 12:25:51;;;;;;;25.42;13.02;;;;;;;;;;5074271;28;20052;-53
2022/03/09 12:28:28;;;;;;;17.95;12.13;;;;;;;;;;5074717;28;20115;-50
2022/03/09 12:30:56;;;;;;;17.83;11.45;;;;;;;;;;5074339;28;20453;-55
2022/03/09 12:33:32;;;;;;;21.60;12.45;;;;;;;;;;5074317;28;20472;-55
2022/03/09 12:36:05;;;;;;;16.08;11.55;;;;;;;;;;5074578;28;20099;-50
2022/03/09 12:38:42;;;;;;;20.25;11.93;;;;;;;;;;5091094;28;20551;-52
2022/03/09 12:41:26;;;;;;;17.95;12.02;;;;;;;;;;5086742;28;20028;-58
2022/03/09 12:43:54;;;;;;;20.60;13.18;;;;;;;;;;5090784;28;20608;-57
2022/03/09 12:46:21;;;;;;;19.13;13.55;;;;;;;;;;5093044;28;20229;-55
2022/03/09 12:48:47;;;;;;;26.50;13.88;;;;;;;;;;5090533;28;20367;-50
2022/03/09 12:51:13;;;;;;;17.63;12.68;;;;;;;;;;5093038;28;20095;-48
2022/03/09 12:53:42;;;;;;;18.05;12.52;;;;;;;;;;5092321;28;20512;-54
2022/03/09 12:56:16;;;;;;;23.80;13.02;;;;;;;;;;5090572;28;20490;-52
2022/03/09 12:58:43;;;;;;;22.92;13.15;;;;;;;;;;5092986;28;20039;-56
2022/03/09 13:01:09;;;;;;;22.40;12.45;;;;;;;;;;5092940;28;20016;-52
2022/03/09 13:03:35;;;;;;;19.58;12.18;;;;;;;;;;5092920;28;20399;-44
2022/03/09 13:06:25;;;;;;;27.85;13.63;;;;;;;;;;5093123;28;20455;-55
2022/03/09 13:08:51;;;;;;;20.33;11.90;;;;;;;;;;5093869;28;20560;-45
2022/03/09 13:11:36;;;;;;;34.03;14.80;;;;;;;;;;5092954;28;20115;-44
2022/03/09 13:14:17;;;;;;;20.10;12.50;;;;;;;;;;5093504;28;20066;-44
2022/03/09 13:16:43;;;;;;;20.38;11.80;;;;;;;;;;5093813;28;20490;-47
2022/03/09 13:19:11;;;;;;;18.58;11.93;;;;;;;;;;5093630;28;20031;-47
2022/03/09 13:21:38;;;;;;;16.55;12.07;;;;;;;;;;5093788;28;20095;-50
2022/03/09 13:24:11;;;;;;;21.95;12.48;;;;;;;;;;5093547;28;20071;-45
2022/03/09 13:26:40;;;;;;;14.70;11.35;;;;;;;;;;5093886;28;20028;-46
2022/03/09 13:29:18;;;;;;;17.77;11.48;;;;;;;;;;5093724;28;20357;-47
2022/03/09 13:32:01;;;;;;;16.75;11.27;;;;;;;;;;5093608;28;20035;-49
2022/03/09 13:34:29;;;;;;;16.90;10.48;;;;;;;;;;5093486;28;20111;-47
2022/03/09 13:37:04;;;;;;;18.23;11.60;;;;;;;;;;5093375;28;20032;-49
2022/03/09 13:39:42;;;;;;;17.75;11.32;;;;;;;;;;5093510;28;20024;-55
2022/03/09 13:42:18;;;;;;;18.92;11.57;;;;;;;;;;5093289;28;20396;-49
2022/03/09 13:45:09;;;;;;;16.65;10.55;;;;;;;;;;5093448;28;20039;-49
2022/03/09 13:47:54;;;;;;;11.48;9.15;;;;;;;;;;5093797;28;20036;-45
2022/03/09 13:50:34;;;;;;;12.45;8.50;;;;;;;;;;5093201;28;20491;-50
2022/03/09 13:53:07;;;;;;;12.73;8.85;;;;;;;;;;5093246;28;20365;-54
2022/03/09 13:55:43;;;;;;;16.40;9.38;;;;;;;;;;5093157;28;20028;-44
2022/03/09 13:58:13;;;;;;;17.15;10.88;;;;;;;;;;5092963;28;20422;-55
2022/03/09 14:00:41;;;;;;;18.15;11.15;;;;;;;;;;5093251;28;20036;-57
2022/03/09 14:03:18;;;;;;;21.65;11.52;;;;;;;;;;5091739;28;20096;-52
2022/03/09 14:05:51;;;;;;;16.08;10.57;;;;;;;;;;5092780;28;20028;-57
2022/03/09 14:08:28;;;;;;;22.35;11.30;;;;;;;;;;5093327;28;20422;-53
2022/03/09 14:11:15;;;;;;;20.50;12.32;;;;;;;;;;5092406;28;20025;-49
2022/03/09 14:13:59;;;;;;;19.35;11.13;;;;;;;;;;5092786;28;20071;-53
2022/03/09 14:16:27;;;;;;;20.35;11.05;;;;;;;;;;5092666;28;20159;-57
2022/03/09 14:18:53;;;;;;;21.15;11.00;;;;;;;;;;5092748;28;20020;-51
2022/03/09 14:21:19;;;;;;;22.20;11.68;;;;;;;;;;5093347;28;20020;-54
2022/03/09 14:23:49;;;;;;;20.80;11.60;;;;;;;;;;5093085;28;20130;-56
2022/03/09 14:26:15;;;;;;;20.92;11.95;;;;;;;;;;5093276;28;20061;-46
2022/03/09 14:28:40;;;;;;;21.08;11.52;;;;;;;;;;5093205;28;20035;-52